KFWA

Fort Wayne International Airport

Fort Wayne, Indiana, USA
METAR KFWA 220032Z 03007KT 10SM BKN022 OVC140 03/01 A3056 RMK AO2 T00330006 $
Observed Flight Rules
Feb-22 @ 00:32 UTC (4 hours ago) Marginal Visual Flight Rules
Wind Visibility Clouds
30° at 7 knots 10 miles
  • Broken at 2,200' AGL
  • Overcast at 14,000' AGL
Temperatures Readings
Current 3°C / 37°F
Dewpoint 1°C / 34°F
Humidity 87%
Altimeter 30.56" Hg
Pressure 1035 hPa
Elevation 248
METAR KFWA 220032Z 03007KT 10SM BKN022 OVC140 03/01 A3056 RMK AO2 T00330006 $
Observed Flight Rules
Feb-22 @ 00:32 UTC
(4 hours ago)
MVFR
Wind Visibility
30° at 7 knots 10 miles
Clouds
  • Broken at 2,200' AGL
  • Overcast at 14,000' AGL
Temperature Dewpoint
3°C / 37°F 1°C / 34°F
Humidity Altimeter Pressure
87% 30.56" Hg 1035 hPa